Kathmandu, Nepal
Current Conditions -  °F | °C
As of 3:50 PM on Monday 20 Oct 2014 (Local Time) from VNKT Reporting Station
Few Clouds Few Clouds  
Wind Chill: 70°   Ceiling: Unl
Heat Index: 70°   Visibility: 6mi
Dew Point: 59°   Wind: 3mph
Humidity: 68%   Direction: 180°S
Pressure: 30.06"   Gusts: NA
Location:  27.71°N, 85.31°E
Report Text: VNKT 201050Z 18003KT 9999 FEW020 21/15 Q1018 NOSIG
Loading
Personal Weather Stations






























Interactive Weather Map New forecast layout! Learn more

10-Day Weather Forecast

Advertisements
Track Severe Weather on mobile